METAR AND TAF INFORMATION
METAR FOR LSZS
ADDS - METARS form results

(2203 UTC 05 April 2020)
Data provider http://aviationweather.gov/metar/data/
 
METAR text: LSZS 052150Z AUTO 22004KT 190V260 CAVOK M00/M04 Q1025
Conditions at: LSZS (SAMEDAN , CH) observed 2150 UTC 05 April 2020
Temperature: 0.0°C (32°F)
Dewpoint: -4.0°C (25°F) [RH = 74%]
Pressure (altimeter): 30.27 inches Hg (1025.0 mb)
Winds: from the SW (220 degrees) at 5 MPH (4 knots; 2.1 m/s)
Visibility: 6 or more miles (10+ km)
Ceiling: ceiling and visibility are OK
Clouds: unknown
Weather: no significant weather observed at this time

METAR text: LSZS 052120Z AUTO 22005KT 200V270 CAVOK M01/M05 Q1025
Conditions at: LSZS (SAMEDAN , CH) observed 2120 UTC 05 April 2020
Temperature: -1.0°C (30°F)
Dewpoint: -5.0°C (23°F) [RH = 74%]
Pressure (altimeter): 30.27 inches Hg (1025.0 mb)
Winds: from the SW (220 degrees) at 6 MPH (5 knots; 2.6 m/s)
Visibility: 6 or more miles (10+ km)
Ceiling: ceiling and visibility are OK
Clouds: unknown
Weather: no significant weather observed at this time

Forecast for: LSZS (SAMEDAN , CH)
Text: TAF LSZS 051425Z 0515/0524 21007KT CAVOK TX09/0515Z
Forecast period: 1500 UTC 05 April 2020 to 0000 UTC 06 April 2020
Forecast type: FROM: standard forecast or significant change
Winds: from the SSW (210 degrees) at 8 MPH (7 knots; 3.6 m/s)
Visibility: 6 or more miles 10+ km)
Ceiling: unknown
Clouds: missing
Weather: no significant weather forecast for this period

 AIRPORT MAP

 RUNWAY INFORMATION
Runway 03 Runway length 5905 ft Runway width 130 ft
Runway elevation 5600 ft Runway displaced threshold 0 ft Runway heading 29
Runway 21 Runway length 5905 ft Runway width 130 ft
Runway elevation 5574 ft Runway displaced threshold 360 ft Runway heading 209

 AIRPORT FREQUENCIES
Type A/G Name GLIDER Frequency 123.67 MHZ
Type ATIS Name ATIS Frequency 136.6 MHZ
Type GND Name GND Frequency 121.6 MHZ
Type INFO Name INFO Frequency 138.05 MHZ
Type TWR Name TWR Frequency 135.325 MHZ

 AIRPORT NEAR NAVIGATION AIDS





Powered by Virtual Airlines Manager